Time;durP1;ratioP1;P1;durP2;ratioP2;P2;SDS_P1;SDS_P2;PMS_P1;PMS_P2;Temp;Humidity;BMP_temperature;BMP_pressure;BME280_temperature;BME280_humidity;BME280_pressure;Samples;Min_cycle;Max_cycle;Signal;HPM_P1;HPM_P2
2021/04/10 00:00:08;;;;;;;2.17;1.27;;;;;;;18.97;50.70;101437.47;4915676;29;20494;-70
2021/04/10 00:02:33;;;;;;;2.60;1.23;;;;;;;18.91;50.70;101434.00;4915454;29;20140;-70
2021/04/10 00:04:59;;;;;;;2.42;1.30;;;;;;;18.90;50.60;101434.84;4937257;29;20049;-77
2021/04/10 00:07:24;;;;;;;2.78;1.80;;;;;;;18.95;50.69;101434.88;4934324;29;20055;-76
2021/04/10 00:09:50;;;;;;;2.45;1.67;;;;;;;18.91;50.49;101417.38;4921283;29;20130;-76
2021/04/10 00:12:15;;;;;;;2.70;1.20;;;;;;;18.95;50.56;101423.50;4920460;29;20035;-76
2021/04/10 00:14:41;;;;;;;1.85;1.15;;;;;;;18.92;50.44;101416.50;4927969;29;20032;-77
2021/04/10 00:17:06;;;;;;;4.25;1.42;;;;;;;18.92;50.57;101422.63;4936590;29;20036;-77
2021/04/10 00:19:32;;;;;;;2.33;0.98;;;;;;;18.91;50.59;101422.63;4936601;29;20049;-76
2021/04/10 00:21:58;;;;;;;3.45;1.40;;;;;;;18.90;50.38;101424.38;4920458;29;20358;-76
2021/04/10 00:24:23;;;;;;;2.50;1.33;;;;;;;18.87;50.64;101423.47;4918587;29;20031;-76
2021/04/10 00:26:48;;;;;;;1.98;1.30;;;;;;;18.91;50.50;101436.59;4919837;29;20028;-76
2021/04/10 00:29:14;;;;;;;1.35;1.10;;;;;;;18.88;50.53;101425.22;4917674;29;20038;-76
2021/04/10 00:31:39;;;;;;;3.15;1.50;;;;;;;18.89;50.52;101430.47;4935618;29;20059;-76
2021/04/10 00:34:04;;;;;;;1.73;1.00;;;;;;;18.91;50.43;101436.59;4936415;29;20055;-76
2021/04/10 00:36:30;;;;;;;2.63;1.30;;;;;;;18.90;50.45;101421.75;4916755;29;20111;-76
2021/04/10 00:38:55;;;;;;;2.33;1.20;;;;;;;18.90;50.42;101437.47;4934165;29;20040;-77
2021/04/10 00:41:21;;;;;;;2.33;0.98;;;;;;;18.89;50.76;101438.34;4939682;29;20042;-76
2021/04/10 00:43:46;;;;;;;4.13;1.95;;;;;;;18.89;50.51;101430.47;4938598;29;20031;-76
2021/04/10 00:46:12;;;;;;;1.92;1.00;;;;;;;18.88;50.54;101438.34;4930841;29;20028;-76
2021/04/10 00:48:37;;;;;;;1.92;1.05;;;;;;;18.85;50.62;101435.69;4935635;29;20474;-76
2021/04/10 00:51:03;;;;;;;2.35;1.00;;;;;;;18.81;50.59;101431.34;4914740;29;20050;-76
2021/04/10 00:53:31;;;;;;;0.95;0.73;;;;;;;18.87;50.46;101436.59;4886764;29;20051;-76
2021/04/10 00:56:00;;;;;;;2.50;1.13;;;;;;;18.86;50.42;101443.56;4936223;29;20050;-76
2021/04/10 00:58:25;;;;;;;2.38;1.05;;;;;;;18.87;50.52;101442.69;4935377;29;20050;-76
2021/04/10 01:00:51;;;;;;;1.92;1.17;;;;;;;18.86;50.55;101443.56;4927938;29;20479;-76
2021/04/10 01:03:17;;;;;;;1.80;0.98;;;;;;;18.83;50.50;101438.31;4934141;29;20036;-77
2021/04/10 01:05:42;;;;;;;3.60;1.20;;;;;;;18.85;50.55;101444.44;4920403;29;20054;-76
2021/04/10 01:08:08;;;;;;;2.78;1.25;;;;;;;18.76;50.59;101422.56;4925536;29;20055;-76
2021/04/10 01:10:34;;;;;;;1.95;1.08;;;;;;;18.83;50.49;101440.06;4931192;29;20043;-76
2021/04/10 01:13:17;;;;;;;3.03;1.45;;;;;;;18.83;50.61;101434.81;4933976;29;20038;-76
2021/04/10 01:15:46;;;;;;;;;;;;;;;18.84;50.41;101437.44;4946044;29;20027;-76
2021/04/10 01:18:17;;;;;;;1.00;0.80;;;;;;;18.79;50.50;101428.72;4933360;29;19911;-76
2021/04/10 01:20:49;;;;;;;1.92;1.10;;;;;;;18.81;50.44;101436.56;4916336;29;20505;-76
2021/04/10 01:23:45;;;;;;;1.30;0.90;;;;;;;18.82;50.46;101444.44;4934519;29;20143;-76
2021/04/10 01:26:52;;;;;;;5.35;1.33;;;;;;;18.77;50.34;101438.31;4942903;29;20039;-77
2021/04/10 01:29:20;;;;;;;2.60;1.33;;;;;;;18.76;50.23;101444.41;4919762;29;20063;-70
2021/04/10 01:31:48;;;;;;;2.15;1.40;;;;;;;18.79;50.54;101451.41;4918858;29;20099;-71
2021/04/10 01:34:36;;;;;;;2.05;1.50;;;;;;;18.78;50.58;101455.78;4916363;29;20079;-70
2021/04/10 01:37:15;;;;;;;2.20;1.38;;;;;;;18.77;50.54;101454.03;4933283;29;20393;-70
2021/04/10 01:39:42;;;;;;;2.03;1.08;;;;;;;18.75;50.48;101447.91;4926072;29;20028;-70
2021/04/10 01:42:09;;;;;;;1.90;1.30;;;;;;;18.80;50.30;101450.53;4923863;29;20039;-70
2021/04/10 01:44:37;;;;;;;1.33;0.75;;;;;;;18.77;50.42;101445.28;4927463;29;20394;-70
2021/04/10 01:47:05;;;;;;;2.17;1.17;;;;;;;18.73;50.40;101441.78;4919922;29;20057;-70
2021/04/10 01:49:31;;;;;;;1.58;0.98;;;;;;;18.77;50.56;101442.66;4935853;29;20419;-70
2021/04/10 01:51:57;;;;;;;3.60;1.27;;;;;;;18.76;50.15;101444.41;4928549;29;20039;-76
2021/04/10 01:54:23;;;;;;;1.90;1.00;;;;;;;18.76;50.45;101439.19;4956308;29;20520;-77
2021/04/10 01:56:49;;;;;;;1.40;1.10;;;;;;;18.76;50.49;101451.41;4921994;29;20067;-76
2021/04/10 01:59:17;;;;;;;2.05;0.98;;;;;;;18.76;50.43;101443.53;4926764;29;20037;-77
2021/04/10 02:01:46;;;;;;;1.65;0.90;;;;;;;18.77;50.48;101453.16;4930884;29;20063;-76
2021/04/10 02:04:13;;;;;;;2.42;1.00;;;;;;;18.67;50.54;101441.78;4923720;29;20073;-77
2021/04/10 02:06:42;;;;;;;2.28;1.10;;;;;;;18.75;50.45;101453.13;4926010;29;20028;-76
2021/04/10 02:09:10;;;;;;;1.45;0.90;;;;;;;18.74;50.41;101454.00;4933644;29;20430;-77
2021/04/10 02:11:37;;;;;;;3.53;1.45;;;;;;;18.74;50.53;101453.13;4937151;29;20032;-76
2021/04/10 02:14:04;;;;;;;2.72;1.10;;;;;;;18.72;50.65;101452.25;4917548;29;20153;-76
2021/04/10 02:16:29;;;;;;;2.78;1.00;;;;;;;18.73;50.46;101454.88;4933594;29;20031;-77
2021/04/10 02:18:56;;;;;;;2.33;1.30;;;;;;;18.70;50.44;101444.38;4933572;29;20047;-76
2021/04/10 02:21:25;;;;;;;2.90;1.00;;;;;;;18.74;50.54;101454.00;4935766;29;20067;-77
2021/04/10 02:23:51;;;;;;;3.50;1.13;;;;;;;18.70;50.46;101449.63;4931941;29;20364;-76
2021/04/10 02:26:16;;;;;;;2.00;0.93;;;;;;;18.73;50.35;101454.88;4936244;29;20043;-76
2021/04/10 02:28:42;;;;;;;2.83;1.23;;;;;;;18.73;50.43;101449.63;4918823;29;20039;-76
2021/04/10 02:31:13;;;;;;;4.07;1.45;;;;;;;18.63;50.42;101437.38;4917706;29;20045;-76
2021/04/10 02:33:41;;;;;;;2.42;1.02;;;;;;;18.73;50.46;101454.00;4919125;29;20063;-76
2021/04/10 02:36:11;;;;;;;2.05;1.33;;;;;;;18.64;50.49;101438.25;4935197;29;20030;-76
2021/04/10 02:38:39;;;;;;;1.42;1.17;;;;;;;18.67;50.42;101448.75;4918887;29;20394;-76
2021/04/10 02:41:19;;;;;;;1.30;0.82;;;;;;;18.54;50.41;101429.47;4935432;29;20078;-77
2021/04/10 02:43:52;;;;;;;2.80;1.00;;;;;;;18.67;50.44;101454.88;4932248;29;20031;-77
2021/04/10 02:46:19;;;;;;;2.20;0.93;;;;;;;18.69;50.39;101463.63;4932070;29;20081;-76
2021/04/10 02:48:58;;;;;;;1.65;1.13;;;;;;;18.68;50.57;101466.22;4934514;29;20994;-76
2021/04/10 02:51:30;;;;;;;2.45;1.60;;;;;;;18.69;50.43;101470.59;4930094;29;20031;-77
2021/04/10 02:53:56;;;;;;;1.20;0.80;;;;;;;18.65;50.41;101467.09;4918549;29;20504;-77
2021/04/10 02:56:25;;;;;;;1.92;0.98;;;;;;;18.68;50.40;101477.59;4935169;29;20032;-76
2021/04/10 02:58:52;;;;;;;2.10;0.93;;;;;;;18.63;50.35;101460.94;4942488;29;20371;-77
2021/04/10 03:01:19;;;;;;;2.80;1.15;;;;;;;18.68;50.37;101477.59;4932474;29;20106;-76
2021/04/10 03:03:46;;;;;;;1.83;1.00;;;;;;;18.67;50.57;101465.34;4934503;29;20030;-77
2021/04/10 03:06:12;;;;;;;2.50;1.20;;;;;;;18.67;50.46;101475.81;4926119;29;20067;-76
2021/04/10 03:08:40;;;;;;;2.30;1.33;;;;;;;18.66;50.34;101478.44;4933272;29;20055;-76
2021/04/10 03:11:05;;;;;;;1.65;1.05;;;;;;;18.66;50.48;101470.56;4930180;29;20515;-76
2021/04/10 03:13:32;;;;;;;1.55;1.10;;;;;;;18.66;50.39;101479.31;4934958;29;20051;-76
2021/04/10 03:15:58;;;;;;;1.95;0.95;;;;;;;18.62;50.37;101466.19;4916947;29;20032;-76
2021/04/10 03:18:24;;;;;;;4.32;1.88;;;;;;;18.63;50.28;101465.31;4907830;29;20037;-76
2021/04/10 03:20:50;;;;;;;1.95;1.00;;;;;;;18.64;50.50;101470.56;4920564;29;20038;-76
2021/04/10 03:23:15;;;;;;;1.67;0.90;;;;;;;18.62;50.50;101464.44;4923145;29;20032;-76
2021/04/10 03:25:41;;;;;;;2.08;0.90;;;;;;;18.61;50.42;101457.44;4912608;29;20028;-77
2021/04/10 03:28:09;;;;;;;2.60;1.10;;;;;;;18.57;50.32;101453.03;4917060;29;20032;-76
2021/04/10 03:30:36;;;;;;;1.30;0.80;;;;;;;18.60;50.30;101453.06;4915419;29;20028;-76
2021/04/10 03:33:02;;;;;;;1.92;1.00;;;;;;;18.63;50.58;101460.94;4893225;29;20035;-76
2021/04/10 03:35:28;;;;;;;2.60;0.93;;;;;;;18.62;50.39;101464.44;4917859;29;20486;-76
2021/04/10 03:37:55;;;;;;;1.98;1.30;;;;;;;18.62;50.35;101455.69;4909466;29;20035;-76
2021/04/10 03:40:20;;;;;;;2.30;1.15;;;;;;;18.62;50.32;101464.44;4924397;29;20529;-76
2021/04/10 03:42:46;;;;;;;1.90;1.15;;;;;;;18.60;50.43;101466.19;4935964;29;20036;-76
2021/04/10 03:45:21;;;;;;;1.05;0.77;;;;;;;18.60;50.49;101462.69;4953614;29;20154;-76
2021/04/10 03:47:47;;;;;;;1.40;0.80;;;;;;;18.60;50.38;101460.06;4937069;29;20032;-76
2021/04/10 03:50:13;;;;;;;1.50;0.93;;;;;;;18.50;50.36;101449.50;4922823;29;20039;-76
2021/04/10 03:52:39;;;;;;;2.47;1.00;;;;;;;18.59;50.24;101467.03;4933729;29;20070;-76
2021/04/10 03:55:06;;;;;;;1.60;0.90;;;;;;;18.59;50.42;101459.19;4942349;29;20160;-77
2021/04/10 03:57:35;;;;;;;2.10;1.15;;;;;;;18.59;50.26;101460.91;4945571;29;20413;-77
2021/04/10 04:00:04;;;;;;;1.85;1.00;;;;;;;18.57;50.10;101459.13;4941860;29;20495;-76
2021/04/10 04:02:29;;;;;;;2.85;1.05;;;;;;;18.60;50.24;101462.69;4920166;29;20031;-76
2021/04/10 04:04:54;;;;;;;4.18;1.30;;;;;;;18.56;50.19;101456.53;4902500;29;20028;-76
2021/04/10 04:07:20;;;;;;;2.17;0.90;;;;;;;18.58;50.24;101462.66;4903138;29;20131;-76
2021/04/10 04:09:45;;;;;;;1.23;0.73;;;;;;;18.55;50.21;101463.53;4917043;29;20036;-76
2021/04/10 04:12:11;;;;;;;2.33;1.00;;;;;;;18.50;50.13;101457.38;4918248;29;20143;-76
2021/04/10 04:14:37;;;;;;;1.77;1.00;;;;;;;18.51;50.43;101459.13;4904822;29;20047;-77
2021/04/10 04:17:04;;;;;;;1.60;0.90;;;;;;;18.54;50.23;101463.50;4925404;29;20032;-76
2021/04/10 04:19:30;;;;;;;1.77;0.88;;;;;;;18.55;50.29;101470.50;4917172;29;20039;-76
2021/04/10 04:21:56;;;;;;;1.75;1.00;;;;;;;18.52;50.24;101465.25;4935392;29;20028;-76
2021/04/10 04:24:22;;;;;;;1.92;1.05;;;;;;;18.54;50.23;101472.25;4935057;29;20040;-76
2021/04/10 04:26:47;;;;;;;1.27;0.75;;;;;;;18.54;50.21;101469.63;4919533;29;20031;-76
2021/04/10 04:29:12;;;;;;;3.17;1.13;;;;;;;18.48;50.31;101458.22;4933228;29;20024;-76
2021/04/10 04:31:38;;;;;;;1.45;0.90;;;;;;;18.47;50.36;101462.59;4899126;29;20036;-76
2021/04/10 04:34:03;;;;;;;1.52;1.10;;;;;;;18.52;50.38;101473.09;4920741;29;20035;-76
2021/04/10 04:36:28;;;;;;;1.17;0.80;;;;;;;18.51;50.25;101472.22;4917198;29;20493;-76
2021/04/10 04:38:54;;;;;;;1.90;0.70;;;;;;;18.51;50.14;101474.84;4937231;29;20082;-76
2021/04/10 04:41:21;;;;;;;1.67;0.93;;;;;;;18.48;50.21;101463.47;4904348;29;20024;-76
2021/04/10 04:43:48;;;;;;;2.90;0.90;;;;;;;18.44;50.08;101462.56;4902443;29;20394;-76
2021/04/10 04:46:14;;;;;;;2.75;1.10;;;;;;;18.48;50.43;101474.81;4914942;29;20028;-77
2021/04/10 04:48:39;;;;;;;2.30;1.08;;;;;;;18.45;50.20;101474.78;4901394;29;20368;-77
2021/04/10 04:51:05;;;;;;;2.38;0.98;;;;;;;18.51;50.22;101490.56;4936674;29;20038;-77
2021/04/10 04:53:31;;;;;;;1.50;0.85;;;;;;;18.49;50.27;101481.81;4928524;29;20027;-76
2021/04/10 04:55:56;;;;;;;1.13;0.70;;;;;;;18.48;50.29;101485.28;4919144;29;20446;-76
2021/04/10 04:58:21;;;;;;;1.88;1.00;;;;;;;18.48;50.25;101480.06;4903834;29;20035;-76
2021/04/10 05:00:47;;;;;;;1.50;0.80;;;;;;;18.49;50.30;101484.44;4926947;29;20031;-76
2021/04/10 05:03:12;;;;;;;1.70;0.98;;;;;;;18.46;50.20;101484.41;4906744;29;20035;-76
2021/04/10 05:05:38;;;;;;;3.53;1.15;;;;;;;18.43;50.33;101480.91;4919622;29;20031;-77
2021/04/10 05:08:03;;;;;;;1.40;0.68;;;;;;;18.47;50.25;101490.53;4912658;29;20060;-76
2021/04/10 05:10:28;;;;;;;2.72;1.38;;;;;;;18.48;50.34;101501.00;4908056;29;21460;-76
2021/04/10 05:12:54;;;;;;;1.80;0.98;;;;;;;18.44;50.29;101500.97;4935958;29;20042;-76
2021/04/10 05:15:20;;;;;;;2.10;0.93;;;;;;;18.48;50.17;101503.63;4932128;29;20098;-77
2021/04/10 05:17:45;;;;;;;1.20;0.75;;;;;;;18.48;50.23;101507.97;4936028;29;20470;-76
2021/04/10 05:20:11;;;;;;;2.53;1.08;;;;;;;18.44;50.34;101503.59;4935514;29;20042;-76
2021/04/10 05:22:36;;;;;;;2.38;0.88;;;;;;;18.44;50.27;101507.09;4906667;29;20031;-77
2021/04/10 05:25:03;;;;;;;3.20;1.30;;;;;;;18.46;50.24;101505.34;4934828;29;20031;-76
2021/04/10 05:27:29;;;;;;;3.03;0.82;;;;;;;18.47;50.30;101516.72;4937601;29;20036;-77
2021/04/10 05:29:54;;;;;;;1.38;0.90;;;;;;;18.46;50.26;101514.94;4922820;29;20104;-76
2021/04/10 05:32:19;;;;;;;1.48;0.75;;;;;;;18.45;50.15;101513.19;4922709;29;20378;-76
2021/04/10 05:34:45;;;;;;;1.05;0.65;;;;;;;18.46;50.20;101520.19;4937079;29;20028;-76
2021/04/10 05:37:10;;;;;;;1.50;0.65;;;;;;;18.46;50.31;101523.69;4917513;29;20027;-76
2021/04/10 05:39:35;;;;;;;0.77;0.50;;;;;;;18.45;50.20;101515.81;4931984;29;20032;-77
2021/04/10 05:42:01;;;;;;;1.00;0.60;;;;;;;18.42;50.23;101518.44;4931549;29;20441;-76
2021/04/10 05:44:26;;;;;;;3.05;1.70;;;;;;;18.44;50.08;101514.94;4930554;29;20083;-75
2021/04/10 05:46:52;;;;;;;2.22;1.15;;;;;;;18.45;50.07;101523.69;4938530;29;20038;-76
2021/04/10 05:49:17;;;;;;;1.20;0.75;;;;;;;18.45;50.07;101523.69;4938922;29;20068;-77
2021/04/10 05:51:42;;;;;;;1.95;1.10;;;;;;;18.39;49.86;101518.41;4938900;29;20027;-76
2021/04/10 05:54:08;;;;;;;0.93;0.57;;;;;;;18.43;50.02;101517.56;4919708;29;20082;-77
2021/04/10 05:56:35;;;;;;;0.75;0.60;;;;;;;18.43;50.15;101531.56;4933001;29;20501;-76
2021/04/10 05:59:00;;;;;;;1.92;1.13;;;;;;;18.44;49.81;101521.91;4916955;29;20086;-76
2021/04/10 06:01:27;;;;;;;1.73;0.60;;;;;;;18.40;50.04;101522.78;4902772;29;20075;-76
2021/04/10 06:03:55;;;;;;;0.82;0.63;;;;;;;18.41;50.05;101524.53;4930756;29;20042;-70
2021/04/10 06:06:20;;;;;;;1.25;0.68;;;;;;;18.44;49.96;101529.78;4914948;29;20040;-70
2021/04/10 06:08:46;;;;;;;0.88;0.60;;;;;;;18.44;49.81;101522.78;4920981;29;20059;-70
2021/04/10 06:11:11;;;;;;;2.70;0.90;;;;;;;18.45;49.94;101521.06;4915417;29;20095;-70
2021/04/10 06:13:36;;;;;;;2.58;0.90;;;;;;;18.45;50.09;101526.28;4912332;29;20035;-70
2021/04/10 06:16:05;;;;;;;1.35;0.70;;;;;;;18.45;49.99;101518.44;4924091;29;20071;-70
2021/04/10 06:18:30;;;;;;;0.82;0.60;;;;;;;18.42;49.92;101521.06;4914727;29;20050;-70
2021/04/10 06:20:56;;;;;;;1.52;0.88;;;;;;;18.45;49.94;101531.53;4915713;29;20537;-69
2021/04/10 06:23:21;;;;;;;2.35;0.75;;;;;;;18.47;49.96;101525.44;4922641;29;20025;-70
2021/04/10 06:25:46;;;;;;;1.67;0.93;;;;;;;18.51;50.03;101532.47;4922959;29;20375;-71
2021/04/10 06:28:12;;;;;;;2.35;1.10;;;;;;;18.65;49.94;101542.19;4932857;29;20032;-70
2021/04/10 06:30:37;;;;;;;1.73;0.90;;;;;;;18.69;49.88;101533.47;4933380;29;20032;-70
2021/04/10 06:33:02;;;;;;;2.97;0.70;;;;;;;18.73;49.74;101532.59;4928954;29;20040;-70
2021/04/10 06:35:28;;;;;;;2.67;0.98;;;;;;;18.74;50.09;101540.47;4928260;29;20024;-69
2021/04/10 06:37:53;;;;;;;1.83;0.88;;;;;;;18.82;49.62;101538.78;4929956;29;20086;-70
2021/04/10 06:40:19;;;;;;;0.95;0.63;;;;;;;18.85;49.75;101541.41;4933593;29;20054;-70
2021/04/10 06:42:44;;;;;;;0.90;0.65;;;;;;;18.83;50.03;101548.38;4928982;29;20027;-70
2021/04/10 06:45:10;;;;;;;1.30;0.63;;;;;;;18.86;50.08;101553.63;4918557;29;20035;-71
2021/04/10 06:47:37;;;;;;;1.02;0.70;;;;;;;18.90;49.85;101536.19;4907081;29;20498;-70
2021/04/10 06:50:05;;;;;;;2.53;1.55;;;;;;;18.94;49.90;101547.56;4911128;29;20035;-70
2021/04/10 06:52:34;;;;;;;2.45;1.10;;;;;;;18.92;50.28;101545.81;4918435;29;20110;-70
2021/04/10 06:55:11;;;;;;;1.88;0.77;;;;;;;18.95;50.13;101547.56;4914215;29;20067;-70
2021/04/10 06:58:04;;;;;;;1.45;0.80;;;;;;;19.04;50.17;101554.59;4933254;29;20036;-70
2021/04/10 07:00:31;;;;;;;1.30;0.73;;;;;;;19.03;50.15;101555.47;4923615;29;20123;-70
2021/04/10 07:02:59;;;;;;;1.52;0.70;;;;;;;18.99;50.29;101564.16;4930961;29;20042;-70
2021/04/10 07:05:24;;;;;;;0.98;0.47;;;;;;;19.05;50.21;101558.97;4914463;29;20058;-76
2021/04/10 07:07:51;;;;;;;0.75;0.50;;;;;;;19.09;50.21;101566.81;4912208;29;20506;-76
2021/04/10 07:10:16;;;;;;;2.78;0.85;;;;;;;19.06;50.07;101558.97;4913286;29;20063;-76
2021/04/10 07:12:42;;;;;;;0.77;0.60;;;;;;;19.06;50.23;101568.59;4917169;29;21604;-76
2021/04/10 07:15:10;;;;;;;1.40;0.70;;;;;;;19.12;50.06;101565.97;4923898;29;20036;-76
2021/04/10 07:17:35;;;;;;;2.25;0.70;;;;;;;19.10;49.93;101557.22;4913631;29;20024;-76
2021/04/10 07:20:30;;;;;;;0.65;0.60;;;;;;;19.09;50.19;101576.44;4918912;29;20115;-75
2021/04/10 07:23:16;;;;;;;0.77;0.50;;;;;;;19.12;50.18;101569.47;4915913;29;20103;-76
2021/04/10 07:25:43;;;;;;;1.65;0.60;;;;;;;19.16;50.07;101562.50;4925294;29;20104;-76
2021/04/10 07:28:29;;;;;;;1.48;0.75;;;;;;;19.16;50.10;101570.38;4904414;29;20027;-75
2021/04/10 07:31:06;;;;;;;1.52;0.80;;;;;;;19.15;50.13;101564.25;4920538;29;20498;-76
2021/04/10 07:33:34;;;;;;;2.78;1.08;;;;;;;19.22;49.98;101565.13;4918393;29;20119;-76
2021/04/10 07:36:02;;;;;;;1.77;0.60;;;;;;;19.21;49.98;101573.91;4917360;29;20028;-76
2021/04/10 07:38:28;;;;;;;1.90;0.70;;;;;;;19.18;50.07;101571.25;4931845;29;20054;-70
2021/04/10 07:40:54;;;;;;;0.77;0.52;;;;;;;19.19;49.98;101570.38;4913913;29;20036;-70
2021/04/10 07:43:24;;;;;;;0.93;0.70;;;;;;;19.26;49.63;101574.75;4918001;29;20039;-70
2021/04/10 07:45:49;;;;;;;1.90;0.75;;;;;;;19.25;49.84;101578.25;4930464;29;20036;-76
2021/04/10 07:48:19;;;;;;;2.20;1.35;;;;;;;19.23;49.99;101575.63;4920384;29;20036;-76
2021/04/10 07:50:45;;;;;;;1.92;1.00;;;;;;;19.26;49.91;101574.75;4919059;29;20027;-77
2021/04/10 07:53:22;;;;;;;1.35;0.80;;;;;;;19.34;49.72;101582.69;4908112;29;20033;-70
2021/04/10 07:55:49;;;;;;;3.25;0.98;;;;;;;19.33;49.90;101587.06;4916961;29;20060;-72
2021/04/10 07:58:32;;;;;;;2.22;1.05;;;;;;;19.18;50.00;101559.03;4914607;29;20040;-71
2021/04/10 08:01:00;;;;;;;3.47;0.88;;;;;;;19.30;49.99;101581.78;4909628;29;20115;-71
2021/04/10 08:03:35;;;;;;;1.58;0.80;;;;;;;19.39;50.08;101597.53;4919093;29;20060;-73
2021/04/10 08:06:04;;;;;;;16.83;1.33;;;;;;;19.40;50.18;101599.28;4917510;29;20032;-70
2021/04/10 08:08:46;;;;;;;2.53;1.30;;;;;;;19.40;50.18;101596.69;4930233;29;20134;-71
2021/04/10 08:11:12;;;;;;;2.10;1.15;;;;;;;19.44;50.17;101603.69;4935725;29;20036;-71
2021/04/10 08:13:38;;;;;;;4.32;1.30;;;;;;;19.45;50.15;101594.94;4921836;29;20043;-71
2021/04/10 08:16:13;;;;;;;4.93;1.20;;;;;;;19.42;50.27;101594.94;4935346;29;20028;-71
2021/04/10 08:18:55;;;;;;;2.33;1.60;;;;;;;19.45;50.44;101604.56;4926607;29;20035;-70
2021/04/10 08:21:37;;;;;;;2.33;1.20;;;;;;;19.45;50.06;101597.56;4917046;29;20482;-70
2021/04/10 08:24:23;;;;;;;3.33;1.42;;;;;;;19.44;50.18;101606.31;4930334;29;20042;-71
2021/04/10 08:26:52;;;;;;;4.10;1.10;;;;;;;19.46;50.31;101603.69;4934701;29;20023;-71
2021/04/10 08:29:19;;;;;;;3.47;1.42;;;;;;;19.50;50.19;101606.34;4931350;29;20042;-71
2021/04/10 08:31:45;;;;;;;1.83;1.05;;;;;;;19.45;50.37;101600.19;4917869;29;20035;-70
2021/04/10 08:34:11;;;;;;;3.72;1.50;;;;;;;19.47;50.34;101618.56;4909061;29;20036;-70
2021/04/10 08:36:40;;;;;;;4.07;1.25;;;;;;;19.47;50.21;101613.31;4918089;29;20155;-70
2021/04/10 08:39:08;;;;;;;4.25;1.38;;;;;;;19.51;50.20;101613.34;4927126;29;20039;-70
2021/04/10 08:41:35;;;;;;;2.08;1.10;;;;;;;19.53;50.06;101618.59;4935005;29;20028;-71
2021/04/10 08:44:01;;;;;;;3.70;1.25;;;;;;;19.45;50.11;101597.56;4920001;29;20027;-71
2021/04/10 08:46:28;;;;;;;3.88;1.75;;;;;;;19.47;50.11;101610.69;4934094;29;20035;-71
2021/04/10 08:48:57;;;;;;;1.95;1.00;;;;;;;19.53;50.10;101608.09;4921173;29;20090;-70
2021/04/10 08:51:25;;;;;;;2.38;1.42;;;;;;;19.56;50.17;101614.25;4927751;29;20024;-71
2021/04/10 08:53:54;;;;;;;2.65;1.30;;;;;;;19.51;50.12;101612.47;4936217;29;20034;-70
2021/04/10 08:56:22;;;;;;;2.08;1.00;;;;;;;19.53;50.22;101619.47;4934117;29;20028;-71
2021/04/10 08:58:49;;;;;;;6.38;1.20;;;;;;;19.51;50.00;101618.59;4930616;29;20027;-71
2021/04/10 09:01:22;;;;;;;1.88;0.90;;;;;;;19.53;49.99;101618.59;4933240;29;20040;-70
2021/04/10 09:03:49;;;;;;;2.97;1.15;;;;;;;19.50;50.08;101619.47;4925552;29;20055;-77
2021/04/10 09:06:22;;;;;;;2.53;1.20;;;;;;;19.55;49.97;101623.00;4924610;29;20118;-70
2021/04/10 09:08:48;;;;;;;;;;;;;;;19.55;49.69;101623.00;4923274;29;20398;-70
2021/04/10 09:11:21;;;;;;;2.58;1.20;;;;;;;19.52;49.87;101630.84;4918568;29;19926;-70
2021/04/10 09:13:47;;;;;;;2.10;1.25;;;;;;;19.50;50.17;101627.34;4933105;29;20036;-71
2021/04/10 09:16:31;;;;;;;3.08;1.80;;;;;;;19.52;49.74;101620.34;4931634;29;20040;-72
2021/04/10 09:19:15;;;;;;;3.90;1.02;;;;;;;19.56;49.69;101630.00;4935498;29;20028;-71
2021/04/10 09:21:40;;;;;;;;;;;;;;;19.55;49.62;101616.88;4928496;29;20479;-77
2021/04/10 09:24:40;;;;;;;3.73;1.00;;;;;;;19.57;49.43;101620.38;4924112;29;19997;-71
2021/04/10 09:27:10;;;;;;;1.77;0.80;;;;;;;19.54;49.59;101631.72;4911632;29;20299;-71
2021/04/10 09:29:46;;;;;;;3.55;1.17;;;;;;;19.49;49.57;101612.47;4913407;29;20506;-70
2021/04/10 09:32:12;;;;;;;3.05;1.60;;;;;;;19.55;49.48;101620.38;4934778;29;20126;-71
2021/04/10 09:34:48;;;;;;;2.50;1.08;;;;;;;19.56;49.57;101618.63;4907323;29;20075;-77
2021/04/10 09:37:34;;;;;;;3.58;1.73;;;;;;;19.52;49.60;101611.59;4936349;29;20051;-77
2021/04/10 09:40:17;;;;;;;4.35;1.42;;;;;;;19.49;49.62;101595.84;4911478;29;20054;-75
2021/04/10 09:45:30;;;;;;;2.50;1.35;;;;;;;19.56;49.82;101609.00;4919696;29;20036;-77
2021/04/10 09:47:55;;;;;;;6.70;1.45;;;;;;;19.59;49.76;101614.28;4922491;29;20031;-78
2021/04/10 09:50:24;;;;;;;2.17;1.02;;;;;;;19.60;49.79;101608.13;4908381;29;20492;-71
2021/04/10 09:53:07;;;;;;;4.00;1.98;;;;;;;19.57;49.77;101607.25;4921741;29;20099;-71
2021/04/10 09:55:36;;;;;;;2.72;1.42;;;;;;;19.56;49.69;101608.13;4920296;29;20387;-71
2021/04/10 09:58:09;;;;;;;2.38;0.90;;;;;;;19.57;49.71;101602.00;4920106;29;20091;-71
2021/04/10 10:00:36;;;;;;;;;;;;;;;19.58;49.73;101603.75;4919951;29;20028;-71
2021/04/10 10:03:04;;;;;;;2.67;1.33;;;;;;;19.48;49.84;101588.81;4931129;29;20375;-71
2021/04/10 10:05:32;;;;;;;4.68;1.20;;;;;;;19.61;49.49;101604.63;4923312;29;20390;-71
2021/04/10 10:08:05;;;;;;;3.83;1.48;;;;;;;19.60;49.61;101602.88;4916567;29;20048;-71
2021/04/10 10:10:35;;;;;;;2.67;1.13;;;;;;;19.55;49.83;101595.88;4920034;29;20036;-77
2021/04/10 10:13:15;;;;;;;2.17;0.90;;;;;;;19.48;49.77;101583.56;4927702;29;20035;-78
2021/04/10 10:15:41;;;;;;;2.55;0.98;;;;;;;19.54;49.57;101589.75;4909289;29;20460;-78
2021/04/10 10:18:27;;;;;;;2.17;0.93;;;;;;;19.58;49.73;101598.53;4906331;29;20119;-77
2021/04/10 10:20:52;;;;;;;3.30;1.35;;;;;;;19.60;49.55;101600.25;4924825;29;20115;-78
2021/04/10 10:23:18;;;;;;;3.70;1.60;;;;;;;19.57;49.78;101584.53;4923859;29;20110;-79
2021/04/10 10:25:43;;;;;;;4.63;1.42;;;;;;;19.61;49.58;101593.25;4917600;29;20043;-78
2021/04/10 10:28:16;;;;;;;4.00;1.60;;;;;;;19.56;49.55;101581.91;4922729;29;20043;-78
2021/04/10 10:30:42;;;;;;;2.20;1.33;;;;;;;19.60;49.41;101594.16;4909103;29;20094;-78
2021/04/10 10:33:07;;;;;;;2.53;1.35;;;;;;;19.60;49.65;101579.25;4913034;29;20435;-78
2021/04/10 10:35:33;;;;;;;3.45;1.30;;;;;;;19.60;49.46;101581.03;4903954;29;20038;-78
2021/04/10 10:38:06;;;;;;;1.50;1.05;;;;;;;19.65;49.40;101578.41;4930571;29;20066;-78
2021/04/10 10:40:33;;;;;;;1.90;0.90;;;;;;;19.60;49.43;101563.50;4919986;29;20031;-79
2021/04/10 10:43:04;;;;;;;2.05;1.00;;;;;;;19.63;49.51;101573.16;4919129;29;20032;-78
2021/04/10 10:45:39;;;;;;;3.88;1.08;;;;;;;19.66;49.26;101574.91;4919283;29;20043;-78
2021/04/10 10:48:43;;;;;;;2.03;1.02;;;;;;;19.67;49.39;101569.66;4916301;29;20031;-78
2021/04/10 10:51:15;;;;;;;4.25;1.10;;;;;;;19.65;49.33;101558.28;4914703;29;20087;-77
2021/04/10 10:53:52;;;;;;;2.97;1.37;;;;;;;19.62;49.34;101560.91;4922674;29;20050;-78
2021/04/10 10:56:17;;;;;;;3.05;1.25;;;;;;;19.67;49.46;101564.41;4922688;29;20028;-78
2021/04/10 10:58:54;;;;;;;2.63;1.27;;;;;;;19.60;49.50;101558.28;4929716;29;20033;-78
2021/04/10 11:01:33;;;;;;;1.85;1.10;;;;;;;19.67;49.68;101560.91;4924716;29;20091;-78
2021/04/10 11:04:18;;;;;;;1.52;0.82;;;;;;;19.70;49.35;101558.31;4926928;29;20442;-78
2021/04/10 11:06:46;;;;;;;1.60;1.27;;;;;;;19.67;49.29;101550.44;4917948;29;20091;-78
2021/04/10 11:09:17;;;;;;;2.00;0.98;;;;;;;19.66;49.28;101557.41;4900473;29;20048;-77
2021/04/10 11:11:45;;;;;;;1.58;0.90;;;;;;;19.62;49.39;101548.66;4922855;29;20050;-78
2021/04/10 11:14:11;;;;;;;2.42;1.15;;;;;;;19.49;49.49;101527.66;4917898;29;20039;-77
2021/04/10 11:16:47;;;;;;;2.03;0.90;;;;;;;19.58;49.55;101551.28;4929267;29;20533;-78
2021/04/10 11:19:28;;;;;;;1.95;1.20;;;;;;;19.53;49.73;101539.91;4910312;29;20059;-78
2021/04/10 11:21:54;;;;;;;3.90;1.40;;;;;;;19.54;49.59;101525.91;4930983;29;20035;-77
2021/04/10 11:24:20;;;;;;;3.72;1.25;;;;;;;19.58;49.49;101530.31;4911625;29;20063;-77
2021/04/10 11:26:54;;;;;;;2.17;1.40;;;;;;;19.55;49.92;101523.31;4923722;29;20040;-75
2021/04/10 11:29:28;;;;;;;2.63;1.58;;;;;;;19.58;49.76;101523.31;4922227;29;20095;-76
2021/04/10 11:32:12;;;;;;;2.92;1.80;;;;;;;19.58;50.16;101525.06;4916234;29;20028;-77
2021/04/10 11:34:38;;;;;;;;;;;;;;;19.59;50.04;101521.56;4929853;29;20059;-78
2021/04/10 11:37:07;;;;;;;6.20;2.38;;;;;;;19.52;50.18;101512.78;4926616;29;19918;-77